Address 0xfc5962352398ecb62291bb19ec1b8edc42debae5

 
 
Txn Hash Method
Block
From
To
Value [Txn Fee]
0xfa7951772bfb8014c8b8a128da664d705e6e2a6f2c1d0cae43c4d8cf8cf21f57Claim Reward105105882021-08-31 15:15:1925 days 1 hr ago0xfc5962352398ecb62291bb19ec1b8edc42debae5OUT 0x1067d34d7bebe2be81657e8a2e3cfebb0161f96b0 BNB0.00093172
0xcb7b26736ec738f50996c7112690a2fde71aadb13a371cf836e07177ef214644Join Raid105036362021-08-31 9:21:1025 days 7 hrs ago0xfc5962352398ecb62291bb19ec1b8edc42debae5OUT 0x1067d34d7bebe2be81657e8a2e3cfebb0161f96b0 BNB0.001538975
0x7634c0daad1309a554960b62cb4f74df1a6eb8ec6d01f720aa5c2816a0a0a460Join Raid105036332021-08-31 9:21:0125 days 7 hrs ago0xfc5962352398ecb62291bb19ec1b8edc42debae5OUT 0x1067d34d7bebe2be81657e8a2e3cfebb0161f96b0 BNB0.001507535
0xcdc31a34cd6a1dd10b007aa7c50e40d20b8bb218d992dcda543402508e04f9fbJoin Raid105036302021-08-31 9:20:5225 days 7 hrs ago0xfc5962352398ecb62291bb19ec1b8edc42debae5OUT 0x1067d34d7bebe2be81657e8a2e3cfebb0161f96b0 BNB0.001476485
0x6303ee6d969d43ce4e8e33d44dc4963898e7c1eb33fa0efb3f2df5ad5122aa77Join Raid105036272021-08-31 9:20:4325 days 7 hrs ago0xfc5962352398ecb62291bb19ec1b8edc42debae5OUT 0x1067d34d7bebe2be81657e8a2e3cfebb0161f96b0 BNB0.001519295
0xdb971e81d209c33bae3026469be4f55c2af242eb9a980a0a95e0c8826bc184c4Claim Reward104917042021-08-30 23:12:5625 days 17 hrs ago0xfc5962352398ecb62291bb19ec1b8edc42debae5OUT 0x1067d34d7bebe2be81657e8a2e3cfebb0161f96b0 BNB0.00101345
0xc4cb7cdf62db2990ddd8d88c622fac2bc614852828812856727f2373dfe6facbJoin Raid104883802021-08-30 20:25:0925 days 20 hrs ago0xfc5962352398ecb62291bb19ec1b8edc42debae5OUT 0x1067d34d7bebe2be81657e8a2e3cfebb0161f96b0 BNB0.00153716
0x28adde1b668eedd1727781c3882b8b65fee92d4188be8372c16240723571d6cdJoin Raid104883772021-08-30 20:25:0025 days 20 hrs ago0xfc5962352398ecb62291bb19ec1b8edc42debae5OUT 0x1067d34d7bebe2be81657e8a2e3cfebb0161f96b0 BNB0.001507965
0xd0c959c8780d9cf34170780ed87e3bb443bb06d65e1e76ff8a5abc8199e6906bJoin Raid104883732021-08-30 20:24:4825 days 20 hrs ago0xfc5962352398ecb62291bb19ec1b8edc42debae5OUT 0x1067d34d7bebe2be81657e8a2e3cfebb0161f96b0 BNB0.001476915
0x8f2545083385af446d9490f6265f88f379596f9fcb6e8312ddc483ceca8ac84fJoin Raid104883702021-08-30 20:24:3925 days 20 hrs ago0xfc5962352398ecb62291bb19ec1b8edc42debae5OUT 0x1067d34d7bebe2be81657e8a2e3cfebb0161f96b0 BNB0.001519725
0x7b73f301045b9f8e0a7b52c4a2b717b00221b476d70063d3524516d0dc6e6138Claim Reward104760892021-08-30 9:49:2126 days 6 hrs ago0xfc5962352398ecb62291bb19ec1b8edc42debae5OUT 0x1067d34d7bebe2be81657e8a2e3cfebb0161f96b0 BNB0.003601105
0xfd5d16b7fe39d28fa1e9a2d8432dad75b77a6a6389e789c212378e73e3f960f7Join Raid104660372021-08-30 1:26:4526 days 15 hrs ago0xfc5962352398ecb62291bb19ec1b8edc42debae5OUT 0x1067d34d7bebe2be81657e8a2e3cfebb0161f96b0 BNB0.001540155
0xbf0daca96bcca0c9932de56d5d35426136a5ce4c3060b04a0d3721185078da33Join Raid104660342021-08-30 1:26:3626 days 15 hrs ago0xfc5962352398ecb62291bb19ec1b8edc42debae5OUT 0x1067d34d7bebe2be81657e8a2e3cfebb0161f96b0 BNB0.00151096
0x7bfc8e0acf38f1ad51586717c1dbf4c39d6d8e682c26fe51702526350cc179f7Join Raid104660302021-08-30 1:26:2426 days 15 hrs ago0xfc5962352398ecb62291bb19ec1b8edc42debae5OUT 0x1067d34d7bebe2be81657e8a2e3cfebb0161f96b0 BNB0.00147991
0x7471fc253cc04be851867925f89ff4bdaae827e03e7c6f7d28c5daa059d3d4ddJoin Raid104660272021-08-30 1:26:1526 days 15 hrs ago0xfc5962352398ecb62291bb19ec1b8edc42debae5OUT 0x1067d34d7bebe2be81657e8a2e3cfebb0161f96b0 BNB0.00152272
0x90240e42d4ae6fdf7806df717035a66d808d5fc4aa50944f6eb49855f7e6096fClaim Reward104536882021-08-29 15:06:4427 days 1 hr ago0xfc5962352398ecb62291bb19ec1b8edc42debae5OUT 0x1067d34d7bebe2be81657e8a2e3cfebb0161f96b0 BNB0.00400515
0x3d24525a85acd19b018710d4c9a90480b8652d1ad9f904f037ab20c5893be0e2Join Raid104448932021-08-29 7:46:4827 days 8 hrs ago0xfc5962352398ecb62291bb19ec1b8edc42debae5OUT 0x1067d34d7bebe2be81657e8a2e3cfebb0161f96b0 BNB0.00153798
0xee61537402658e0b1de6045788db946b5f2a0079bb11f5c538a0d7c6f48dbb45Join Raid104448902021-08-29 7:46:3927 days 8 hrs ago0xfc5962352398ecb62291bb19ec1b8edc42debae5OUT 0x1067d34d7bebe2be81657e8a2e3cfebb0161f96b0 BNB0.00150749
0x0d14dac0fe625e1b5f36e4d2e82be2ac2ad8507e25c4b246031cdf9e5b030543Join Raid104448872021-08-29 7:46:3027 days 8 hrs ago0xfc5962352398ecb62291bb19ec1b8edc42debae5OUT 0x1067d34d7bebe2be81657e8a2e3cfebb0161f96b0 BNB0.001476985
0x186a3aa507a15c96733a9e86d2b83189c75b9e4553da583c326d829753e04f21Join Raid104448842021-08-29 7:46:2127 days 8 hrs ago0xfc5962352398ecb62291bb19ec1b8edc42debae5OUT 0x1067d34d7bebe2be81657e8a2e3cfebb0161f96b0 BNB0.00151882
0x85caea68df5cb468f94c3e8febab072d88bb5737940cc77c0048fb3ac24b546aClaim Reward104448802021-08-29 7:46:0927 days 8 hrs ago0xfc5962352398ecb62291bb19ec1b8edc42debae5OUT 0x1067d34d7bebe2be81657e8a2e3cfebb0161f96b0 BNB0.004523815
0x1068a0399e0b10a3df9888f7727968fe846020444d624a754f753258f4530916Join Raid104437092021-08-29 6:47:3627 days 9 hrs ago0xfc5962352398ecb62291bb19ec1b8edc42debae5OUT 0x1067d34d7bebe2be81657e8a2e3cfebb0161f96b0 BNB0.00153759
0xe914a0c2b7be6cc7570021c71037ab3c308e8c1a85705641539d42dd3e4ed2b8Join Raid104437072021-08-29 6:47:3027 days 9 hrs ago0xfc5962352398ecb62291bb19ec1b8edc42debae5OUT 0x1067d34d7bebe2be81657e8a2e3cfebb0161f96b0 BNB0.001507535
0xe1ca54ce0e09103a6bbf3efbecce408eee6374a902d7ea85a03747703f960191Join Raid104437052021-08-29 6:47:2427 days 9 hrs ago0xfc5962352398ecb62291bb19ec1b8edc42debae5OUT 0x1067d34d7bebe2be81657e8a2e3cfebb0161f96b0 BNB0.001476485
0xf7cc7cf1ab02e48f76f25f034f4155e6a9d155c1a37843da6a7f46d4057692cfJoin Raid104437022021-08-29 6:47:1527 days 9 hrs ago0xfc5962352398ecb62291bb19ec1b8edc42debae5OUT 0x1067d34d7bebe2be81657e8a2e3cfebb0161f96b0 BNB0.001519295
[ Download CSV Export 
Latest 2 internal transactions
Parent Txn Hash Block From To Value
0x61ee1c8acb76772094ce7e3c95f84e8cb78f18e8278c80a597168f894dd03a8394700112021-07-25 16:22:3362 days 8 mins ago 0x1306b783008bc3e136b916e32d401af06204ed470xfc5962352398ecb62291bb19ec1b8edc42debae50 BNB
0x405f48ff57e16517e9b9ae22fd0add710a2c46b07cc2cfda49995c9528a86e0793468742021-07-21 9:14:0166 days 7 hrs ago 0x13a6cedaa10aa4d5f69afa35c0517c93b0173b4d0xfc5962352398ecb62291bb19ec1b8edc42debae50 BNB
[ Download CSV Export 
Loading

Contract Name:
0 BNB

Compiler Version
0

Optimization Enabled:
0 BNB

Other Settings:
-NA-
Block Transaction Gas Used Reward
Age Block Fee Address BC Fee Address Voting Power Jailed Incoming
Block Uncle Number Difficulty Gas Used Reward
Loading
Loading
Make sure to use the "Vote Down" button for any spammy posts, and the "Vote Up" for interesting conversations.